createdAt,value
2023-05-14T00:03:12.607Z,101129.83
2023-05-14T00:08:15.460Z,101129.16
2023-05-14T00:13:18.145Z,101131.86
2023-05-14T00:18:20.839Z,101133.86
2023-05-14T00:23:24.241Z,101135.44
2023-05-14T00:28:27.002Z,101138.19
2023-05-14T00:33:30.413Z,101140.23
2023-05-14T00:38:33.172Z,101139.09
2023-05-14T00:43:35.889Z,101138.23
2023-05-14T00:48:38.773Z,101131.71
2023-05-14T00:53:41.875Z,101132.17
2023-05-14T00:58:44.666Z,101132.85
2023-05-14T01:03:47.513Z,101123.37
2023-05-14T01:08:53.153Z,101119.98
2023-05-14T01:14:17.313Z,101123.91
2023-05-14T01:19:44.017Z,101121.01
2023-05-14T01:24:46.823Z,101114.94
2023-05-14T01:30:12.589Z,101117.86
2023-05-14T01:35:16.141Z,101117.54
2023-05-14T01:40:19.508Z,101122.73
2023-05-14T01:45:23.732Z,101121.17
2023-05-14T01:50:26.507Z,101118.48
2023-05-14T01:55:29.298Z,101114.06
2023-05-14T02:00:32.070Z,101117.74
2023-05-14T02:05:34.742Z,101113.19
2023-05-14T02:10:37.464Z,101114.88
2023-05-14T02:15:40.535Z,101117.92
2023-05-14T02:20:43.239Z,101114.41
2023-05-14T02:25:48.859Z,101114.56
2023-05-14T02:30:51.520Z,101110.13
2023-05-14T02:35:54.356Z,101110.02
2023-05-14T02:40:57.075Z,101107.06
2023-05-14T02:45:59.890Z,101112.29
2023-05-14T02:51:03.009Z,101109.48
2023-05-14T02:56:06.050Z,101103.27
2023-05-14T03:01:08.916Z,101102.33
2023-05-14T03:06:12.242Z,101099.93
2023-05-14T03:11:14.990Z,101098.56
2023-05-14T03:16:17.719Z,101094.44
2023-05-14T03:21:20.584Z,101095.60
2023-05-14T03:26:23.287Z,101093.93
2023-05-14T03:31:26.694Z,101092.76
2023-05-14T03:36:29.577Z,101088.88
2023-05-14T03:41:33.078Z,101084.18
2023-05-14T03:46:35.887Z,101083.59
2023-05-14T03:51:38.627Z,101085.20
2023-05-14T03:56:41.413Z,101082.94
2023-05-14T04:01:44.386Z,101087.59
2023-05-14T04:06:47.109Z,101080.66
2023-05-14T04:11:49.825Z,101079.16
2023-05-14T04:16:52.648Z,101078.23
2023-05-14T04:21:55.413Z,101077.84
2023-05-14T04:26:58.155Z,101075.16
2023-05-14T04:32:00.996Z,101073.61
2023-05-14T04:37:04.329Z,101076.95
2023-05-14T04:42:07.862Z,101074.85
2023-05-14T04:47:10.574Z,101067.46
2023-05-14T04:52:13.455Z,101057.59
2023-05-14T04:57:16.900Z,101051.50
2023-05-14T05:02:19.651Z,101051.52
2023-05-14T05:07:22.545Z,101048.42
2023-05-14T05:12:26.161Z,101047.45
2023-05-14T05:17:31.634Z,101045.41
2023-05-14T05:22:34.426Z,101050.92
2023-05-14T05:27:37.149Z,101046.80
2023-05-14T05:32:42.866Z,101043.42
2023-05-14T05:37:45.806Z,101043.33
2023-05-14T05:42:48.574Z,101042.83
2023-05-14T05:47:51.394Z,101039.41
2023-05-14T05:52:54.308Z,101038.63
2023-05-14T05:57:57.132Z,101041.45
2023-05-14T06:03:00.820Z,101037.17
2023-05-14T06:08:04.459Z,101033.64
2023-05-14T06:13:07.196Z,101032.94
2023-05-14T06:18:10.025Z,101032.66
2023-05-14T06:23:12.751Z,101025.26
2023-05-14T06:28:15.502Z,101024.17
2023-05-14T06:33:20.038Z,101019.63
2023-05-14T06:38:23.527Z,101021.14
2023-05-14T06:43:26.629Z,101015.80
2023-05-14T06:48:29.631Z,101012.38
2023-05-14T06:53:32.636Z,101010.45
2023-05-14T06:58:35.455Z,101008.80
2023-05-14T07:03:38.263Z,101000.85
2023-05-14T07:08:41.209Z,100996.86
2023-05-14T07:13:43.971Z,100993.73
2023-05-14T07:18:46.833Z,100987.63
2023-05-14T07:23:50.325Z,100990.05
2023-05-14T07:28:53.243Z,100987.95
2023-05-14T07:33:55.940Z,100983.75
2023-05-14T07:38:59.406Z,100978.60
2023-05-14T07:44:02.304Z,100972.61
2023-05-14T07:49:05.029Z,100973.34
2023-05-14T07:54:07.877Z,100971.09
2023-05-14T07:59:10.793Z,100962.55
2023-05-14T08:04:15.693Z,100956.96
2023-05-14T08:09:18.525Z,100960.13
2023-05-14T08:14:21.623Z,100957.92
2023-05-14T08:19:24.702Z,100947.04
2023-05-14T08:24:27.615Z,100949.60
2023-05-14T08:29:33.544Z,100947.15
2023-05-14T08:34:36.700Z,100940.25
2023-05-14T08:39:41.768Z,100935.69
2023-05-14T08:44:50.298Z,100936.65
2023-05-14T08:50:02.048Z,100928.09
2023-05-14T08:55:07.953Z,100924.63
2023-05-14T09:00:12.630Z,100921.89
2023-05-14T09:05:17.401Z,100916.35
2023-05-14T09:10:21.735Z,100912.93
2023-05-14T09:15:29.093Z,100903.23
2023-05-14T09:20:32.926Z,100901.58
2023-05-14T09:25:35.646Z,100893.66
2023-05-14T09:30:38.479Z,100896.91
2023-05-14T09:35:43.512Z,100892.54
2023-05-14T09:40:46.860Z,100882.41
2023-05-14T09:45:50.421Z,100874.88
2023-05-14T09:50:54.165Z,100866.25
2023-05-14T09:55:56.896Z,100864.15
2023-05-14T10:01:02.659Z,100852.45
2023-05-14T10:06:06.690Z,100858.29
2023-05-14T10:11:15.285Z,100853.52
2023-05-14T10:16:29.168Z,100850.27
2023-05-14T10:21:36.720Z,100834.13
2023-05-14T10:26:42.163Z,100831.79
2023-05-14T10:31:47.354Z,100826.25
2023-05-14T10:36:51.849Z,100820.78
2023-05-14T10:41:54.821Z,100810.86
2023-05-14T10:46:57.645Z,100803.98
2023-05-14T10:52:01.810Z,100800.52
2023-05-14T10:57:04.716Z,100793.71
2023-05-14T11:02:22.690Z,100787.47
2023-05-14T11:07:29.773Z,100777.79
2023-05-14T11:12:34.374Z,100776.11
2023-05-14T11:17:39.050Z,100776.48
2023-05-14T11:22:43.245Z,100766.14
2023-05-14T11:27:47.655Z,100768.41
2023-05-14T11:32:51.087Z,100763.38
2023-05-14T11:37:53.955Z,100748.70
2023-05-14T11:42:56.893Z,100747.94
2023-05-14T11:47:59.665Z,100744.20
2023-05-14T11:53:02.420Z,100751.67
2023-05-14T11:58:05.618Z,100748.84
2023-05-14T12:03:10.685Z,100741.17
2023-05-14T12:08:22.848Z,100740.16
2023-05-14T12:13:30.872Z,100729.95
2023-05-14T12:18:33.842Z,100722.85
2023-05-14T12:23:38.618Z,100714.25
2023-05-14T12:28:43.738Z,100704.84
2023-05-14T12:33:46.810Z,100700.95
2023-05-14T12:38:50.853Z,100695.29
2023-05-14T12:43:53.855Z,100693.85
2023-05-14T12:48:56.987Z,100681.86
2023-05-14T12:53:59.732Z,100679.16
2023-05-14T12:59:02.399Z,100685.54
2023-05-14T13:04:09.943Z,100692.58
2023-05-14T13:09:12.738Z,100667.73
2023-05-14T13:14:15.719Z,100657.23
2023-05-14T13:19:18.442Z,100655.00
2023-05-14T13:24:21.742Z,100639.95
2023-05-14T13:29:24.460Z,100632.83
2023-05-14T13:34:27.169Z,100624.49
2023-05-14T13:39:30.112Z,100618.34
2023-05-14T13:44:32.943Z,100613.02
2023-05-14T13:49:35.687Z,100611.92
2023-05-14T13:54:38.605Z,100600.50
2023-05-14T13:59:42.071Z,100598.33
2023-05-14T14:04:45.212Z,100585.61
2023-05-14T14:09:47.991Z,100584.85
2023-05-14T14:14:51.110Z,100579.19
2023-05-14T14:19:54.057Z,100568.95
2023-05-14T14:24:56.869Z,100562.20
2023-05-14T14:29:59.789Z,100556.39
2023-05-14T14:35:03.990Z,100550.33
2023-05-14T14:40:12.106Z,100545.38
2023-05-14T14:45:14.861Z,100545.84
2023-05-14T14:50:17.634Z,100539.44
2023-05-14T14:55:20.392Z,100536.46
2023-05-14T15:00:23.339Z,100532.31
2023-05-14T15:05:27.322Z,100531.98
2023-05-14T15:10:31.895Z,100524.86
2023-05-14T15:15:36.110Z,100518.12
2023-05-14T15:20:38.976Z,100507.88
2023-05-14T15:25:42.017Z,100500.29
2023-05-14T15:30:47.913Z,100499.70
2023-05-14T15:35:51.379Z,100504.48
2023-05-14T15:40:54.093Z,100501.00
2023-05-14T15:45:56.891Z,100503.01
2023-05-14T15:51:00.149Z,100503.83
2023-05-14T15:56:03.095Z,100491.80
2023-05-14T16:01:05.920Z,100490.41
2023-05-14T16:06:08.825Z,100484.96
2023-05-14T16:11:11.616Z,100485.65
2023-05-14T16:16:14.358Z,100481.97
2023-05-14T16:21:17.106Z,100471.79
2023-05-14T16:26:19.818Z,100468.53
2023-05-14T16:31:22.753Z,100460.82
2023-05-14T16:36:26.718Z,100465.84
2023-05-14T16:41:29.495Z,100457.08
2023-05-14T16:46:33.119Z,100454.05
2023-05-14T16:51:37.937Z,100449.73
2023-05-14T16:56:41.144Z,100451.56
2023-05-14T17:01:44.419Z,100446.32
2023-05-14T17:06:47.381Z,100446.37
2023-05-14T17:11:50.121Z,100445.10
2023-05-14T17:16:53.938Z,100443.15
2023-05-14T17:21:56.616Z,100451.24
2023-05-14T17:26:59.336Z,100440.57
2023-05-14T17:32:03.621Z,100442.39
2023-05-14T17:37:07.257Z,100444.11
2023-05-14T17:42:10.061Z,100446.63
2023-05-14T17:47:13.167Z,100451.30
2023-05-14T17:52:15.834Z,100444.14
2023-05-14T17:57:19.002Z,100446.64
2023-05-14T18:02:21.794Z,100444.60
2023-05-14T18:07:24.770Z,100444.76
2023-05-14T18:12:29.334Z,100450.63
2023-05-14T18:17:32.425Z,100456.64
2023-05-14T18:22:35.232Z,100457.68
2023-05-14T18:27:44.662Z,100452.78
2023-05-14T18:32:47.823Z,100454.01
2023-05-14T18:37:50.859Z,100453.34
2023-05-14T18:42:53.600Z,100454.67
2023-05-14T18:47:56.588Z,100453.58
2023-05-14T18:52:59.357Z,100458.59
2023-05-14T18:58:02.523Z,100461.09
2023-05-14T19:03:05.647Z,100460.23
2023-05-14T19:08:08.532Z,100463.15
2023-05-14T19:13:11.827Z,100462.74
2023-05-14T19:18:14.782Z,100463.81
2023-05-14T19:23:18.209Z,100460.10
2023-05-14T19:28:21.364Z,100454.67
2023-05-14T19:33:26.480Z,100454.77
2023-05-14T19:38:29.753Z,100456.45
2023-05-14T19:43:32.586Z,100451.48
2023-05-14T19:48:35.394Z,100454.30
2023-05-14T19:53:38.101Z,100449.45
2023-05-14T19:58:41.229Z,100443.77
2023-05-14T20:03:44.040Z,100446.77
2023-05-14T20:08:46.859Z,100448.02
2023-05-14T20:13:49.568Z,100445.34
2023-05-14T20:18:54.056Z,100437.10
2023-05-14T20:23:57.112Z,100440.39
2023-05-14T20:28:59.771Z,100445.05
2023-05-14T20:34:02.697Z,100441.23
2023-05-14T20:39:06.375Z,100439.83
2023-05-14T20:44:09.161Z,100436.50
2023-05-14T20:49:11.850Z,100441.75
2023-05-14T20:54:14.559Z,100437.13
2023-05-14T20:59:17.253Z,100435.55
2023-05-14T21:04:20.021Z,100426.64
2023-05-14T21:09:23.830Z,100418.27
2023-05-14T21:14:26.645Z,100415.09
2023-05-14T21:19:29.311Z,100416.82
2023-05-14T21:24:32.148Z,100419.71
2023-05-14T21:29:34.979Z,100411.20
2023-05-14T21:34:38.213Z,100402.83
2023-05-14T21:39:41.027Z,100405.12
2023-05-14T21:44:43.727Z,100400.92
2023-05-14T21:49:46.490Z,100400.52
2023-05-14T21:54:49.192Z,100397.36
2023-05-14T21:59:51.917Z,100390.39
2023-05-14T22:04:54.598Z,100386.04
2023-05-14T22:09:57.300Z,100383.38
2023-05-14T22:15:00.290Z,100374.42
2023-05-14T22:20:07.400Z,100377.61
2023-05-14T22:25:10.466Z,100373.73
2023-05-14T22:30:13.236Z,100370.01
2023-05-14T22:35:16.190Z,100363.81
2023-05-14T22:40:18.982Z,100361.98
2023-05-14T22:45:21.657Z,100354.79
2023-05-14T22:50:24.334Z,100349.41
2023-05-14T22:55:27.422Z,100348.88
2023-05-14T23:00:30.407Z,100344.13
2023-05-14T23:05:33.099Z,100339.01
2023-05-14T23:10:35.813Z,100335.02
2023-05-14T23:15:38.947Z,100331.45
2023-05-14T23:20:41.650Z,100324.23
2023-05-14T23:25:44.473Z,100319.64
2023-05-14T23:30:47.245Z,100310.42
2023-05-14T23:35:50.069Z,100300.63
2023-05-14T23:40:52.787Z,100292.27
2023-05-14T23:45:55.811Z,100282.95
2023-05-14T23:50:58.558Z,100279.47
2023-05-14T23:56:01.310Z,100271.77
